»·PEaware :: N973SE KSBA-KBUR

N973SE :: KSBA-KBUR

FLIGHT INFORMATION

Flight Status: Arrived
Operator: Privately registered:
United States
More flights under this callsign
Pilot: Stig E. (4778)
Aircraft: CESSNA 172 SKYHAWK
(C172)
More flights by this aircraft type
Origin: KSBA Santa Barbara Mun
United States
Destination: KBUR Bob Hope-Burbank
United States
More flights between these airports :: More routes between these airports
Route:
File this flight plan on PilotEdge
Remarks:
Altitude:
(Current/Filed)
7,500ft
Speed:
(Current/Filed)
95kts
Departed: 07-Dec-17 09:30 AM
Arrived: 07-Dec-17 10:18 AM
Distance/Time
Traveled:
75nm/0:48
Distance/Time
To Go:
Arrived

Flight Plot

Page will automatically refresh every two minutes.


Map Options




Map Legend


Flown Route
Filed Route
Departure Airport
Arrival Airport
Navaid (VOR, NDB)
Fix

Horizontal Profiles

Position Reports

Time Latitude Longitude Heading Altitude Ground
Speed
07-Dec-17 08:55 34.432575 -119.835075 71 14ft 0kts
07-Dec-17 08:56 34.432575 -119.835075 71 14ft 0kts
07-Dec-17 08:57 34.432575 -119.835075 71 14ft 0kts
07-Dec-17 08:58 34.432575 -119.835075 71 14ft 0kts
07-Dec-17 08:59 34.432575 -119.835075 71 14ft 0kts
07-Dec-17 09:00 34.432575 -119.835075 71 14ft 0kts
07-Dec-17 09:01 34.432575 -119.835075 71 14ft 0kts
07-Dec-17 09:02 34.432575 -119.835075 71 14ft 0kts
07-Dec-17 09:03 34.432575 -119.835075 71 14ft 0kts
07-Dec-17 09:04 34.432575 -119.835075 71 14ft 0kts
07-Dec-17 09:05 34.432575 -119.835075 71 14ft 0kts
07-Dec-17 09:06 34.432575 -119.835075 71 14ft 0kts
07-Dec-17 09:07 34.432575 -119.835075 71 14ft 0kts
07-Dec-17 09:08 34.432575 -119.835075 71 14ft 0kts
07-Dec-17 09:09 34.432575 -119.835075 71 14ft 0kts
07-Dec-17 09:10 34.432575 -119.835075 71 14ft 0kts
07-Dec-17 09:11 34.432575 -119.835075 71 14ft 0kts
07-Dec-17 09:12 34.432575 -119.835075 71 14ft 0kts
07-Dec-17 09:13 34.432575 -119.835075 71 14ft 0kts
07-Dec-17 09:14 34.432575 -119.835075 71 14ft 0kts
07-Dec-17 09:15 34.432575 -119.835075 71 14ft 0kts
07-Dec-17 09:16 34.432575 -119.835075 71 14ft 0kts
07-Dec-17 09:17 34.432575 -119.835075 71 14ft 0kts
07-Dec-17 09:18 34.432575 -119.835075 71 14ft 0kts
07-Dec-17 09:19 34.432575 -119.835075 71 14ft 0kts
07-Dec-17 09:20 34.432575 -119.835075 71 14ft 0kts
07-Dec-17 09:21 34.432575 -119.835075 71 14ft 0kts
07-Dec-17 09:22 34.432575 -119.835075 71 14ft 0kts
07-Dec-17 09:23 34.432575 -119.835075 71 14ft 0kts
07-Dec-17 09:24 34.432575 -119.835075 71 14ft 0kts
07-Dec-17 09:25 34.431472 -119.837249 250 14ft 17kts
07-Dec-17 09:26 34.430682 -119.839775 248 14ft 0kts
07-Dec-17 09:28 34.430682 -119.839775 248 14ft 0kts
07-Dec-17 09:29 34.430682 -119.839775 248 14ft 0kts
07-Dec-17 09:30 34.430682 -119.839775 248 14ft 0kts
07-Dec-17 09:31 34.430682 -119.839775 248 14ft 0kts
07-Dec-17 09:32 34.430682 -119.839775 248 14ft 0kts
07-Dec-17 09:33 34.430682 -119.839775 248 14ft 0kts
07-Dec-17 09:34 34.430682 -119.839775 248 14ft 0kts
07-Dec-17 09:35 34.430682 -119.839775 248 14ft 0kts
07-Dec-17 09:36 34.425043 -119.838629 167 64ft 77kts
07-Dec-17 09:37 34.402371 -119.832702 170 848ft 88kts
07-Dec-17 09:38 34.373439 -119.825194 166 1061ft 108kts
07-Dec-17 09:39 34.343285 -119.814502 160 1190ft 112kts
07-Dec-17 09:40 34.329161 -119.783877 90 1591ft 115kts
07-Dec-17 09:41 34.326906 -119.744056 93 1932ft 113kts
07-Dec-17 09:41 34.325038 -119.713025 93 2635ft 107kts
07-Dec-17 09:43 34.322609 -119.672672 93 3484ft 100kts
07-Dec-17 09:44 34.320634 -119.639851 93 4130ft 96kts
07-Dec-17 09:45 34.318733 -119.608308 93 4759ft 94kts
07-Dec-17 09:46 34.316813 -119.576433 93 5261ft 95kts
07-Dec-17 09:47 34.314899 -119.544533 93 5758ft 94kts
07-Dec-17 09:48 34.313012 -119.512883 93 6255ft 94kts
07-Dec-17 09:48 34.311451 -119.486647 93 6669ft 93kts
07-Dec-17 09:50 34.309264 -119.449806 93 7145ft 100kts
07-Dec-17 09:50 34.307615 -119.421234 93 7137ft 103kts
07-Dec-17 09:51 34.305598 -119.385983 93 7136ft 106kts
07-Dec-17 09:52 34.303561 -119.350114 93 7135ft 107kts
07-Dec-17 09:53 34.301548 -119.314448 94 7135ft 107kts
07-Dec-17 09:54 34.299523 -119.278339 94 7135ft 107kts
07-Dec-17 09:55 34.297548 -119.242880 93 7134ft 103kts
07-Dec-17 09:56 34.295663 -119.208797 93 7135ft 100kts
07-Dec-17 09:57 34.293819 -119.175285 93 7135ft 99kts
07-Dec-17 09:58 34.291993 -119.141933 93 7135ft 99kts
07-Dec-17 09:59 34.290177 -119.108615 93 7135ft 99kts
07-Dec-17 10:00 34.288370 -119.075303 93 7135ft 99kts
07-Dec-17 10:01 34.286491 -119.040602 93 7136ft 104kts
07-Dec-17 10:02 34.284608 -119.005494 93 7135ft 104kts
07-Dec-17 10:03 34.282613 -118.968262 93 6767ft 115kts
07-Dec-17 10:04 34.280571 -118.929502 93 6268ft 115kts
07-Dec-17 10:05 34.278551 -118.890675 93 5768ft 115kts
07-Dec-17 10:06 34.274144 -118.852200 98 5270ft 115kts
07-Dec-17 10:07 34.269346 -118.813888 98 4791ft 115kts
07-Dec-17 10:08 34.264525 -118.775333 98 4338ft 116kts
07-Dec-17 10:09 34.259653 -118.736282 98 3866ft 118kts
07-Dec-17 10:10 34.254321 -118.696961 100 3384ft 118kts
07-Dec-17 10:11 34.248476 -118.658878 100 3132ft 107kts
07-Dec-17 10:12 34.243234 -118.624770 100 3132ft 101kts
07-Dec-17 10:13 34.238072 -118.591196 100 3136ft 101kts
07-Dec-17 10:14 34.232850 -118.557182 100 3137ft 103kts
07-Dec-17 10:15 34.227593 -118.522819 100 3144ft 107kts
07-Dec-17 10:16 34.222142 -118.487028 100 3135ft 106kts
07-Dec-17 10:17 34.216882 -118.452415 100 3141ft 103kts
07-Dec-17 10:18 34.210954 -118.420927 102 3111ft 81kts
07-Dec-17 10:19 34.205823 -118.393603 106 2678ft 80kts
07-Dec-17 10:20 34.192296 -118.373544 142 2301ft 77kts
07-Dec-17 10:21 34.178514 -118.362890 74 1895ft 81kts
07-Dec-17 10:22 34.195663 -118.355811 346 804ft 75kts
07-Dec-17 10:23 34.207325 -118.359041 344 746ft 21kts
07-Dec-17 10:24 34.209618 -118.360650 247 760ft 0kts
07-Dec-17 10:25 34.209618 -118.360650 247 760ft 0kts
07-Dec-17 10:26 34.209317 -118.360796 166 758ft 9kts
07-Dec-17 10:27 34.204422 -118.359782 188 737ft 22kts

Navigation Log

Ident Type
1. KSBA Airport
2. KBUR Airport